Mc Grath, Minnesota
Current Conditions -  °F | °C
As of 7:47 AM on Monday 24 Nov 2014 (Local Time) from KHZX Reporting Station
Overcast Overcast  
Wind Chill: 10°   Ceiling: 900
Heat Index: 23°   Visibility: 5mi
Dew Point: 21°   Wind: 15mph
Humidity: 93%   Direction: 310°NW
Pressure: 29.36"   Gusts: 22mph
Location:  46.3008°N, 93.2513°W
Report Text: KHZX 241347Z AUTO 31013G19KT 5SM OVC009 M05/M06 A2936 RMK AO2
Loading
Personal Weather Stations






























Interactive Weather Map New forecast layout! Learn more

10-Day Weather Forecast

Advertisements
Track Severe Weather on mobile